createdAt,value
2019-03-20T00:01:10.367Z,88.93
2019-03-20T00:03:40.868Z,94.17
2019-03-20T00:06:11.542Z,83.30
2019-03-20T00:08:42.246Z,87.27
2019-03-20T00:11:12.869Z,84.47
2019-03-20T00:13:43.677Z,86.80
2019-03-20T00:16:14.436Z,81.23
2019-03-20T00:18:44.956Z,82.97
2019-03-20T00:21:15.622Z,86.83
2019-03-20T00:23:46.839Z,89.50
2019-03-20T00:26:17.379Z,98.33
2019-03-20T00:28:47.963Z,73.87
2019-03-20T00:31:18.538Z,90.07
2019-03-20T00:33:49.269Z,78.67
2019-03-20T00:36:20.105Z,89.17
2019-03-20T00:38:50.570Z,92.43
2019-03-20T00:41:22.259Z,90.93
2019-03-20T00:43:52.716Z,92.50
2019-03-20T00:46:23.190Z,114.30
2019-03-20T00:48:53.667Z,110.93
2019-03-20T00:51:24.225Z,111.27
2019-03-20T00:53:55.745Z,116.70
2019-03-20T00:56:26.308Z,121.13
2019-03-20T00:58:57.009Z,114.97
2019-03-20T01:01:27.751Z,129.53
2019-03-20T01:03:58.135Z,114.13
2019-03-20T01:06:29.099Z,112.70
2019-03-20T01:08:59.678Z,109.07
2019-03-20T01:11:31.000Z,111.53
2019-03-20T01:14:01.725Z,117.37
2019-03-20T01:16:32.277Z,107.53
2019-03-20T01:19:03.252Z,98.00
2019-03-20T01:21:37.485Z,116.23
2019-03-20T01:24:08.210Z,111.33
2019-03-20T01:26:38.763Z,105.57
2019-03-20T01:29:11.668Z,103.47
2019-03-20T01:31:42.295Z,106.27
2019-03-20T01:34:12.915Z,109.80
2019-03-20T01:36:45.909Z,108.10
2019-03-20T01:39:18.486Z,99.63
2019-03-20T01:41:49.001Z,117.80
2019-03-20T01:44:19.531Z,118.67
2019-03-20T01:46:50.299Z,123.13
2019-03-20T01:49:20.907Z,123.10
2019-03-20T01:51:51.644Z,116.00
2019-03-20T01:54:22.089Z,114.90
2019-03-20T01:56:52.596Z,110.07
2019-03-20T01:59:23.126Z,113.20
2019-03-20T02:01:55.673Z,114.53
2019-03-20T02:04:26.222Z,131.63
2019-03-20T02:06:56.791Z,118.17
2019-03-20T02:09:27.257Z,119.83
2019-03-20T02:11:57.761Z,140.47
2019-03-20T02:14:28.202Z,126.70
2019-03-20T02:16:58.773Z,138.27
2019-03-20T02:19:29.202Z,140.90
2019-03-20T02:22:00.059Z,145.37
2019-03-20T02:24:30.661Z,151.63
2019-03-20T02:27:01.707Z,137.13
2019-03-20T02:29:32.343Z,152.10
2019-03-20T02:32:03.169Z,119.43
2019-03-20T02:34:34.065Z,111.47
2019-03-20T02:37:04.747Z,112.23
2019-03-20T02:39:35.310Z,130.33
2019-03-20T02:42:06.178Z,133.90
2019-03-20T02:44:36.969Z,118.43
2019-03-20T02:47:07.411Z,107.13
2019-03-20T02:49:38.003Z,114.33
2019-03-20T02:52:08.566Z,120.53
2019-03-20T02:54:39.271Z,114.70
2019-03-20T02:57:10.008Z,123.83
2019-03-20T02:59:40.535Z,123.27
2019-03-20T03:02:12.296Z,105.13
2019-03-20T03:04:43.023Z,124.50
2019-03-20T03:07:13.759Z,138.27
2019-03-20T03:09:47.668Z,153.23
2019-03-20T03:12:18.393Z,145.63
2019-03-20T03:14:48.838Z,149.33
2019-03-20T03:17:20.887Z,158.33
2019-03-20T03:19:51.597Z,160.03
2019-03-20T03:22:22.157Z,147.37
2019-03-20T03:24:53.507Z,138.27
2019-03-20T03:27:24.069Z,146.40
2019-03-20T03:29:54.694Z,141.37
2019-03-20T03:32:25.287Z,146.47
2019-03-20T03:34:56.130Z,149.23
2019-03-20T03:37:27.988Z,155.27
2019-03-20T03:39:58.955Z,139.63
2019-03-20T03:42:29.665Z,146.00
2019-03-20T03:45:00.586Z,157.97
2019-03-20T03:47:31.329Z,161.57
2019-03-20T03:50:02.019Z,151.93
2019-03-20T03:52:32.489Z,146.70
2019-03-20T03:55:03.176Z,159.23
2019-03-20T03:57:33.922Z,133.57
2019-03-20T04:00:05.796Z,147.97
2019-03-20T04:02:36.321Z,156.10
2019-03-20T04:05:07.400Z,171.13
2019-03-20T04:07:38.014Z,184.67
2019-03-20T04:10:10.410Z,191.17
2019-03-20T04:12:41.139Z,203.13
2019-03-20T04:15:12.668Z,197.50
2019-03-20T04:17:43.329Z,196.90
2019-03-20T04:20:14.466Z,230.27
2019-03-20T04:22:45.363Z,227.53
2019-03-20T04:25:16.448Z,226.47
2019-03-20T04:27:47.106Z,200.60
2019-03-20T04:30:18.256Z,211.93
2019-03-20T04:32:48.934Z,201.40
2019-03-20T04:35:19.578Z,211.43
2019-03-20T04:37:50.186Z,199.03
2019-03-20T04:40:20.951Z,206.67
2019-03-20T04:42:51.685Z,193.27
2019-03-20T04:45:22.416Z,210.63
2019-03-20T04:47:52.853Z,227.03
2019-03-20T04:50:23.668Z,187.83
2019-03-20T04:52:54.637Z,203.33
2019-03-20T04:55:25.566Z,200.70
2019-03-20T04:57:56.064Z,210.93
2019-03-20T05:00:26.897Z,208.33
2019-03-20T05:02:57.598Z,194.97
2019-03-20T05:05:28.588Z,201.17
2019-03-20T05:07:59.361Z,199.80
2019-03-20T05:10:29.928Z,199.97
2019-03-20T05:13:00.630Z,204.13
2019-03-20T05:15:31.247Z,185.80
2019-03-20T05:18:02.183Z,175.93
2019-03-20T05:20:32.875Z,183.77
2019-03-20T05:23:03.707Z,198.37
2019-03-20T05:25:34.386Z,186.87
2019-03-20T05:28:04.956Z,180.27
2019-03-20T05:30:36.014Z,179.43
2019-03-20T05:33:06.842Z,180.83
2019-03-20T05:35:38.734Z,176.03
2019-03-20T05:38:09.763Z,178.73
2019-03-20T05:40:40.616Z,173.87
2019-03-20T05:43:15.091Z,154.67
2019-03-20T05:45:45.845Z,160.00
2019-03-20T05:48:18.217Z,126.67
2019-03-20T05:50:49.050Z,135.67
2019-03-20T05:53:20.828Z,148.23
2019-03-20T05:55:52.607Z,149.80
2019-03-20T05:58:23.726Z,140.93
2019-03-20T06:00:54.359Z,129.47
2019-03-20T06:03:30.715Z,137.47
2019-03-20T06:06:01.545Z,136.40
2019-03-20T06:08:32.387Z,139.47
2019-03-20T06:11:03.055Z,129.33
2019-03-20T06:13:33.743Z,117.43
2019-03-20T06:16:06.711Z,109.27
2019-03-20T06:18:37.359Z,114.93
2019-03-20T06:21:08.113Z,107.43
2019-03-20T06:23:38.897Z,112.17
2019-03-20T06:26:09.505Z,112.07
2019-03-20T06:28:40.208Z,111.80
2019-03-20T06:31:14.005Z,113.40
2019-03-20T06:33:44.758Z,91.23
2019-03-20T06:36:15.587Z,79.20
2019-03-20T06:38:46.555Z,94.70
2019-03-20T06:41:17.438Z,85.17
2019-03-20T06:43:48.195Z,87.47
2019-03-20T06:46:25.523Z,74.30
2019-03-20T06:48:56.201Z,74.60
2019-03-20T06:51:27.151Z,74.33
2019-03-20T06:53:57.875Z,64.23
2019-03-20T06:56:28.616Z,80.83
2019-03-20T06:59:37.600Z,52.50
2019-03-20T07:02:08.392Z,66.43
2019-03-20T07:05:04.064Z,60.73
2019-03-20T07:07:43.899Z,48.83
2019-03-20T07:10:22.458Z,59.33
2019-03-20T07:12:53.215Z,53.40
2019-03-20T07:15:24.043Z,46.73
2019-03-20T07:17:54.971Z,58.13
2019-03-20T07:20:25.596Z,44.93
2019-03-20T07:22:56.166Z,35.17
2019-03-20T07:25:26.800Z,39.10
2019-03-20T07:28:00.461Z,24.23
2019-03-20T07:30:32.786Z,30.27
2019-03-20T07:33:03.363Z,22.57
2019-03-20T07:35:34.094Z,22.80
2019-03-20T07:38:04.958Z,22.27
2019-03-20T07:40:36.989Z,26.97
2019-03-20T07:43:09.094Z,25.53
2019-03-20T07:45:40.266Z,23.40
2019-03-20T07:48:21.499Z,19.27
2019-03-20T07:50:43.361Z,19.63
2019-03-20T07:53:15.125Z,18.60
2019-03-20T07:55:45.808Z,19.63
2019-03-20T07:58:16.817Z,24.83
2019-03-20T08:00:47.518Z,23.43
2019-03-20T08:03:18.312Z,21.37
2019-03-20T08:05:49.040Z,18.23
2019-03-20T08:08:19.727Z,18.40
2019-03-20T08:10:50.590Z,11.47
2019-03-20T08:13:21.246Z,16.07
2019-03-20T08:15:52.078Z,10.43
2019-03-20T08:18:22.595Z,13.70
2019-03-20T08:20:53.260Z,13.33
2019-03-20T08:23:23.951Z,16.20
2019-03-20T08:25:54.470Z,12.53
2019-03-20T08:28:24.940Z,12.37
2019-03-20T08:30:55.688Z,13.73
2019-03-20T08:33:28.539Z,11.73
2019-03-20T08:35:59.296Z,12.73
2019-03-20T08:38:29.839Z,12.90
2019-03-20T08:41:00.511Z,8.83
2019-03-20T08:43:31.443Z,6.83
2019-03-20T08:46:02.034Z,6.10
2019-03-20T08:48:34.028Z,5.30
2019-03-20T08:51:04.708Z,7.80
2019-03-20T08:53:35.368Z,6.00
2019-03-20T08:56:06.043Z,7.30
2019-03-20T08:58:36.613Z,7.03
2019-03-20T09:01:07.280Z,4.43
2019-03-20T09:03:37.800Z,8.83
2019-03-20T09:06:08.495Z,4.67
2019-03-20T09:08:39.129Z,6.00
2019-03-20T09:11:09.672Z,4.50
2019-03-20T09:13:40.186Z,4.87
2019-03-20T09:16:11.137Z,4.17
2019-03-20T09:18:41.665Z,4.50
2019-03-20T09:21:12.137Z,5.83
2019-03-20T09:23:42.711Z,4.87
2019-03-20T09:26:13.558Z,6.00
2019-03-20T09:28:44.309Z,6.60
2019-03-20T09:31:15.082Z,8.67
2019-03-20T09:33:45.769Z,7.67
2019-03-20T09:36:17.691Z,8.20
2019-03-20T09:38:48.372Z,5.97
2019-03-20T09:41:19.096Z,10.00
2019-03-20T09:43:49.614Z,8.87
2019-03-20T09:46:21.366Z,9.40
2019-03-20T09:48:52.008Z,7.83
2019-03-20T09:51:24.226Z,7.17
2019-03-20T09:53:54.744Z,8.33
2019-03-20T09:56:25.182Z,4.77
2019-03-20T09:58:55.803Z,6.87
2019-03-20T10:01:26.427Z,5.50
2019-03-20T10:03:57.153Z,7.33
2019-03-20T10:06:30.108Z,6.23
2019-03-20T10:09:01.883Z,6.57
2019-03-20T10:11:33.769Z,11.17
2019-03-20T10:14:04.604Z,2.90
2019-03-20T10:16:35.505Z,5.60
2019-03-20T10:19:06.229Z,7.70
2019-03-20T10:21:36.707Z,5.43
2019-03-20T10:24:07.513Z,6.07
2019-03-20T10:26:38.188Z,10.70
2019-03-20T10:29:08.870Z,5.00
2019-03-20T10:31:39.479Z,6.37
2019-03-20T10:34:10.231Z,6.73
2019-03-20T10:36:40.920Z,6.33
2019-03-20T10:39:11.689Z,5.50
2019-03-20T10:41:42.418Z,7.40
2019-03-20T10:44:13.157Z,3.70
2019-03-20T10:46:45.196Z,4.83
2019-03-20T10:49:16.178Z,8.67
2019-03-20T10:51:46.848Z,7.13
2019-03-20T10:54:17.633Z,6.23
2019-03-20T10:56:48.383Z,12.50
2019-03-20T10:59:19.045Z,6.60
2019-03-20T11:01:49.839Z,8.10
2019-03-20T11:04:20.638Z,8.10
2019-03-20T11:06:51.551Z,7.20
2019-03-20T11:09:22.220Z,7.00
2019-03-20T11:11:53.013Z,7.83
2019-03-20T11:14:23.921Z,6.37
2019-03-20T11:16:54.603Z,6.83
2019-03-20T11:19:25.302Z,9.27
2019-03-20T11:21:56.161Z,8.50
2019-03-20T11:24:26.807Z,9.17
2019-03-20T11:26:57.424Z,10.63
2019-03-20T11:29:28.253Z,9.63
2019-03-20T11:31:59.204Z,9.20
2019-03-20T11:34:29.805Z,6.93
2019-03-20T11:37:00.641Z,9.37
2019-03-20T11:39:31.345Z,9.00
2019-03-20T11:42:02.063Z,8.03
2019-03-20T11:44:32.772Z,10.97
2019-03-20T11:47:03.599Z,8.47
2019-03-20T11:49:34.356Z,7.57
2019-03-20T11:52:06.334Z,9.03
2019-03-20T11:54:41.657Z,9.83
2019-03-20T11:57:12.576Z,9.10
2019-03-20T11:59:43.234Z,12.53
2019-03-20T12:02:13.678Z,9.73
2019-03-20T12:04:44.421Z,10.40
2019-03-20T12:07:16.105Z,6.63
2019-03-20T12:09:46.834Z,9.27
2019-03-20T12:12:17.585Z,8.03
2019-03-20T12:14:48.349Z,9.73
2019-03-20T12:17:20.220Z,8.93
2019-03-20T12:19:51.238Z,13.67
2019-03-20T12:22:21.980Z,10.23
2019-03-20T12:24:52.847Z,10.03
2019-03-20T12:27:23.813Z,9.67
2019-03-20T12:29:57.801Z,12.80
2019-03-20T12:32:28.511Z,11.93
2019-03-20T12:34:59.217Z,10.40
2019-03-20T12:37:29.985Z,8.37
2019-03-20T12:40:00.776Z,11.20
2019-03-20T12:42:31.656Z,11.03
2019-03-20T12:45:02.498Z,9.67
2019-03-20T12:47:33.424Z,12.77
2019-03-20T12:50:07.140Z,9.83
2019-03-20T12:52:37.881Z,13.03
2019-03-20T12:55:10.752Z,9.47
2019-03-20T12:57:41.526Z,12.77
2019-03-20T13:00:15.033Z,10.97
2019-03-20T13:02:45.820Z,12.43
2019-03-20T13:05:16.620Z,10.07
2019-03-20T13:07:47.598Z,12.70
2019-03-20T13:10:19.463Z,7.73
2019-03-20T13:12:50.206Z,9.37
2019-03-20T13:15:22.169Z,15.30
2019-03-20T13:17:53.316Z,10.17
2019-03-20T13:20:25.236Z,9.33
2019-03-20T13:23:01.912Z,11.87
2019-03-20T13:25:32.647Z,8.27
2019-03-20T13:28:03.415Z,10.27
2019-03-20T13:30:37.223Z,8.53
2019-03-20T13:33:07.832Z,9.93
2019-03-20T13:35:38.579Z,12.87
2019-03-20T13:38:09.461Z,13.70
2019-03-20T13:40:40.302Z,13.20
2019-03-20T13:43:11.089Z,12.10
2019-03-20T13:45:41.850Z,7.47
2019-03-20T13:48:12.891Z,9.00
2019-03-20T13:50:43.638Z,8.10
2019-03-20T13:53:15.469Z,9.97
2019-03-20T13:55:47.534Z,10.37
2019-03-20T13:58:18.370Z,11.37
2019-03-20T14:00:48.920Z,8.93
2019-03-20T14:03:19.634Z,9.93
2019-03-20T14:05:50.322Z,9.90
2019-03-20T14:08:21.095Z,11.50
2019-03-20T14:10:51.961Z,10.13
2019-03-20T14:13:22.676Z,15.10
2019-03-20T14:15:53.502Z,13.73
2019-03-20T14:18:24.088Z,10.27
2019-03-20T14:20:54.735Z,12.40
2019-03-20T14:23:25.393Z,12.67
2019-03-20T14:25:56.006Z,12.50
2019-03-20T14:28:26.556Z,14.73
2019-03-20T14:30:57.396Z,14.03
2019-03-20T14:33:28.186Z,16.40
2019-03-20T14:35:59.538Z,16.00
2019-03-20T14:38:30.217Z,16.20
2019-03-20T14:41:00.939Z,10.57
2019-03-20T14:43:31.597Z,14.17
2019-03-20T14:46:03.951Z,12.83
2019-03-20T14:48:34.763Z,11.17
2019-03-20T14:51:05.421Z,13.50
2019-03-20T14:53:36.242Z,13.53
2019-03-20T14:56:08.988Z,19.90
2019-03-20T14:58:39.826Z,14.67
2019-03-20T15:01:10.605Z,9.27
2019-03-20T15:03:41.298Z,13.77
2019-03-20T15:06:11.883Z,16.30
2019-03-20T15:08:42.707Z,12.20
2019-03-20T15:11:13.494Z,10.67
2019-03-20T15:13:44.184Z,14.63
2019-03-20T15:16:14.882Z,14.33
2019-03-20T15:18:45.547Z,10.33
2019-03-20T15:21:16.165Z,10.87
2019-03-20T15:23:46.692Z,14.23
2019-03-20T15:26:17.549Z,15.93
2019-03-20T15:28:48.283Z,14.23
2019-03-20T15:31:19.089Z,15.17
2019-03-20T15:33:49.644Z,14.80
2019-03-20T15:36:20.188Z,10.70
2019-03-20T15:38:50.757Z,14.03
2019-03-20T15:41:21.360Z,14.63
2019-03-20T15:44:01.947Z,14.00
2019-03-20T15:46:24.547Z,14.93
2019-03-20T15:48:55.518Z,15.97
2019-03-20T15:51:26.246Z,17.83
2019-03-20T15:53:57.256Z,12.67
2019-03-20T15:56:28.160Z,14.90
2019-03-20T15:58:58.927Z,18.67
2019-03-20T16:01:29.877Z,14.83
2019-03-20T16:04:00.816Z,16.77
2019-03-20T16:06:31.648Z,17.80
2019-03-20T16:09:07.765Z,15.80
2019-03-20T16:11:39.554Z,16.90
2019-03-20T16:14:10.506Z,14.60
2019-03-20T16:16:40.975Z,15.70
2019-03-20T16:19:11.808Z,18.43
2019-03-20T16:21:42.891Z,15.83
2019-03-20T16:24:16.360Z,17.43
2019-03-20T16:26:48.620Z,14.83
2019-03-20T16:29:19.428Z,17.73
2019-03-20T16:31:50.577Z,15.37
2019-03-20T16:34:21.374Z,20.00
2019-03-20T16:36:53.107Z,18.50
2019-03-20T16:39:23.839Z,20.67
2019-03-20T16:41:54.398Z,17.13
2019-03-20T16:44:26.094Z,18.00
2019-03-20T16:46:57.101Z,21.33
2019-03-20T16:49:29.469Z,25.80
2019-03-20T16:52:00.102Z,20.50
2019-03-20T16:54:30.965Z,22.07
2019-03-20T16:57:01.675Z,25.17
2019-03-20T16:59:33.427Z,26.03
2019-03-20T17:02:04.238Z,27.47
2019-03-20T17:04:36.158Z,25.30
2019-03-20T17:07:07.256Z,25.40
2019-03-20T17:09:38.174Z,23.97
2019-03-20T17:12:09.023Z,25.87
2019-03-20T17:14:41.730Z,24.03
2019-03-20T17:17:13.805Z,23.10
2019-03-20T17:19:44.536Z,22.07
2019-03-20T17:22:15.375Z,23.83
2019-03-20T17:24:46.306Z,24.43
2019-03-20T17:27:17.728Z,24.33
2019-03-20T17:29:48.628Z,28.77
2019-03-20T17:32:19.797Z,24.70
2019-03-20T17:34:50.822Z,21.93
2019-03-20T17:37:21.679Z,23.17
2019-03-20T17:39:52.578Z,27.57
2019-03-20T17:42:23.283Z,32.23
2019-03-20T17:44:53.962Z,27.23
2019-03-20T17:47:24.646Z,31.50
2019-03-20T17:49:55.418Z,30.20
2019-03-20T17:52:27.205Z,33.43
2019-03-20T17:54:57.906Z,37.13
2019-03-20T17:57:29.284Z,28.70
2019-03-20T18:00:00.318Z,33.07
2019-03-20T18:02:31.465Z,37.23
2019-03-20T18:05:02.791Z,33.30
2019-03-20T18:07:33.747Z,31.47
2019-03-20T18:10:08.393Z,31.27
2019-03-20T18:12:39.463Z,36.40
2019-03-20T18:15:11.928Z,32.60
2019-03-20T18:17:43.342Z,36.50
2019-03-20T18:20:14.318Z,33.43
2019-03-20T18:22:45.875Z,29.87
2019-03-20T18:25:16.775Z,31.83
2019-03-20T18:27:52.058Z,35.40
2019-03-20T18:30:25.977Z,34.53
2019-03-20T18:32:57.418Z,31.77
2019-03-20T18:35:28.244Z,33.00
2019-03-20T18:37:58.926Z,35.43
2019-03-20T18:40:30.012Z,28.23
2019-03-20T18:43:00.871Z,28.47
2019-03-20T18:45:35.476Z,31.53
2019-03-20T18:48:11.547Z,30.10
2019-03-20T18:50:42.326Z,32.43
2019-03-20T18:53:13.108Z,33.47
2019-03-20T18:55:50.837Z,32.27
2019-03-20T18:58:22.357Z,30.77
2019-03-20T19:00:53.432Z,30.83
2019-03-20T19:03:24.197Z,30.57
2019-03-20T19:06:03.641Z,31.10
2019-03-20T19:08:34.929Z,29.07
2019-03-20T19:11:05.646Z,27.30
2019-03-20T19:13:36.601Z,29.10
2019-03-20T19:16:07.564Z,28.40
2019-03-20T19:18:38.443Z,20.10
2019-03-20T19:21:13.585Z,25.50
2019-03-20T19:23:44.643Z,27.00
2019-03-20T19:26:15.575Z,29.07
2019-03-20T19:28:46.470Z,33.70
2019-03-20T19:31:17.249Z,34.80
2019-03-20T19:33:48.209Z,29.90
2019-03-20T19:36:20.864Z,31.13
2019-03-20T19:38:55.803Z,33.93
2019-03-20T19:41:37.395Z,29.87
2019-03-20T19:44:09.789Z,29.80
2019-03-20T19:46:41.154Z,36.27
2019-03-20T19:49:11.729Z,43.20
2019-03-20T19:51:42.491Z,46.30
2019-03-20T19:54:15.502Z,47.20
2019-03-20T19:56:49.755Z,35.93
2019-03-20T19:59:22.079Z,34.03
2019-03-20T20:01:56.022Z,33.63
2019-03-20T20:04:30.461Z,28.97
2019-03-20T20:07:01.356Z,31.57
2019-03-20T20:09:39.303Z,35.37
2019-03-20T20:12:11.491Z,36.63
2019-03-20T20:14:45.023Z,28.17
2019-03-20T20:17:15.829Z,32.90
2019-03-20T20:19:46.551Z,34.93
2019-03-20T20:22:19.474Z,30.53
2019-03-20T20:24:50.893Z,32.80
2019-03-20T20:27:22.259Z,32.63
2019-03-20T20:29:53.249Z,30.53
2019-03-20T20:32:24.010Z,36.20
2019-03-20T20:34:54.751Z,34.23
2019-03-20T20:37:25.381Z,31.43
2019-03-20T20:39:56.126Z,33.47
2019-03-20T20:42:26.700Z,33.33
2019-03-20T20:44:57.133Z,34.53
2019-03-20T20:47:27.730Z,34.87
2019-03-20T20:49:58.647Z,31.20
2019-03-20T20:52:30.606Z,31.33
2019-03-20T20:55:01.569Z,33.43
2019-03-20T20:57:32.334Z,33.63
2019-03-20T21:00:03.032Z,34.23
2019-03-20T21:02:33.734Z,36.67
2019-03-20T21:05:04.832Z,35.83
2019-03-20T21:07:35.561Z,39.33
2019-03-20T21:10:06.755Z,36.70
2019-03-20T21:12:55.102Z,33.60
2019-03-20T21:15:20.511Z,37.00
2019-03-20T21:18:16.790Z,35.80
2019-03-20T21:20:48.136Z,39.77
2019-03-20T21:23:56.953Z,32.53
2019-03-20T21:26:28.024Z,43.73
2019-03-20T21:29:37.048Z,37.50
2019-03-20T21:32:19.397Z,40.00
2019-03-20T21:35:28.159Z,36.60
2019-03-20T21:38:08.557Z,39.57
2019-03-20T21:40:53.149Z,32.47
2019-03-20T21:43:48.723Z,38.40
2019-03-20T21:46:46.058Z,41.07
2019-03-20T21:49:17.169Z,36.27
2019-03-20T21:51:48.411Z,35.27
2019-03-20T21:54:57.396Z,34.70
2019-03-20T21:57:58.353Z,37.63
2019-03-20T22:01:07.308Z,49.70
2019-03-20T22:03:38.554Z,49.90
2019-03-20T22:06:49.435Z,41.63
2019-03-20T22:09:28.086Z,39.17
2019-03-20T22:12:36.863Z,42.90
2019-03-20T22:15:22.440Z,47.47
2019-03-20T22:18:19.478Z,39.73
2019-03-20T22:21:05.814Z,39.87
2019-03-20T22:24:02.639Z,31.80
2019-03-20T22:27:11.753Z,35.73
2019-03-20T22:29:42.864Z,29.30
2019-03-20T22:32:51.876Z,31.43
2019-03-20T22:35:50.548Z,28.20
2019-03-20T22:38:53.749Z,28.10
2019-03-20T22:41:51.120Z,28.80
2019-03-20T22:44:22.245Z,31.30
2019-03-20T22:47:31.075Z,29.80
2019-03-20T22:50:30.018Z,31.37
2019-03-20T22:53:28.169Z,29.83
2019-03-20T22:56:09.069Z,32.23
2019-03-20T22:58:46.783Z,27.63
2019-03-20T23:01:22.181Z,29.73
2019-03-20T23:03:58.478Z,25.47
2019-03-20T23:06:29.578Z,31.03
2019-03-20T23:09:00.742Z,30.90
2019-03-20T23:11:33.587Z,29.23
2019-03-20T23:14:04.908Z,28.80
2019-03-20T23:16:35.923Z,25.50
2019-03-20T23:19:07.337Z,22.10
2019-03-20T23:21:38.678Z,29.10
2019-03-20T23:24:10.015Z,29.03
2019-03-20T23:26:41.028Z,20.63
2019-03-20T23:29:12.333Z,25.27
2019-03-20T23:31:43.398Z,21.27
2019-03-20T23:34:14.605Z,17.13
2019-03-20T23:36:45.596Z,23.43
2019-03-20T23:39:16.787Z,24.63
2019-03-20T23:41:48.030Z,20.17
2019-03-20T23:44:21.496Z,20.37
2019-03-20T23:46:52.970Z,27.50
2019-03-20T23:49:24.436Z,22.40
2019-03-20T23:51:55.668Z,21.37
2019-03-20T23:54:31.973Z,24.87
2019-03-20T23:57:03.078Z,21.37
2019-03-20T23:59:34.327Z,21.87
